Time;durP1;ratioP1;P1;durP2;ratioP2;P2;SDS_P1;SDS_P2;PMS_P1;PMS_P2;Temp;Humidity;BMP_temperature;BMP_pressure;BME280_temperature;BME280_humidity;BME280_pressure;Samples;Min_cycle;Max_cycle;Signal;HPM_P1;HPM_P2
2024/02/17 00:00:35;;;;;;;20.08;8.25;;;6.20;99.90;;;5.58;100.00;102515.31;4185201;28;20021;-69
2024/02/17 00:02:36;;;;;;;17.10;8.32;;;6.10;99.90;;;5.57;100.00;102518.88;4185159;28;20083;-69
2024/02/17 00:04:37;;;;;;;28.52;11.30;;;6.20;99.90;;;5.55;100.00;102520.72;4184992;28;20083;-69
2024/02/17 00:06:38;;;;;;;29.77;11.43;;;6.20;99.90;;;5.49;100.00;102515.84;4184664;28;20400;-69
2024/02/17 00:08:39;;;;;;;27.70;13.48;;;6.20;99.90;;;5.47;100.00;102528.13;4183842;28;20017;-69
2024/02/17 00:10:39;;;;;;;24.95;12.15;;;6.10;99.90;;;5.42;100.00;102527.53;4185110;28;20029;-69
2024/02/17 00:12:41;;;;;;;26.30;10.77;;;6.10;99.90;;;5.41;100.00;102527.59;4185019;28;20025;-69
2024/02/17 00:14:41;;;;;;;30.52;12.85;;;6.10;99.90;;;5.40;100.00;102525.94;4184951;28;20064;-69
2024/02/17 00:16:42;;;;;;;38.67;11.15;;;6.00;99.90;;;5.41;100.00;102535.44;4183945;28;20396;-69
2024/02/17 00:18:43;;;;;;;26.58;9.48;;;6.00;99.90;;;5.35;100.00;102541.84;4184969;28;20071;-69
2024/02/17 00:20:44;;;;;;;23.35;10.68;;;6.00;99.90;;;5.28;100.00;102537.03;4184735;28;20033;-70
2024/02/17 00:22:45;;;;;;;37.88;12.45;;;6.00;99.90;;;5.30;100.00;102541.25;4183936;28;20120;-69
2024/02/17 00:24:46;;;;;;;33.92;13.63;;;5.90;99.90;;;5.28;100.00;102543.09;4184838;28;20032;-69
2024/02/17 00:26:48;;;;;;;31.25;12.90;;;5.90;99.90;;;5.14;100.00;102532.47;4185064;28;20033;-69
2024/02/17 00:28:51;;;;;;;34.67;13.77;;;5.90;99.90;;;5.25;100.00;102553.72;4183716;28;20420;-69
2024/02/17 00:30:55;;;;;;;35.42;13.88;;;5.90;99.90;;;5.20;100.00;102542.63;4184956;28;20028;-69
2024/02/17 00:32:56;;;;;;;29.30;11.65;;;5.80;99.90;;;5.22;100.00;102548.66;4183658;28;20415;-70
2024/02/17 00:34:57;;;;;;;30.52;12.93;;;5.90;99.90;;;5.26;100.00;102551.94;4184918;28;20032;-70
2024/02/17 00:36:58;;;;;;;21.45;9.93;;;5.90;99.90;;;5.25;100.00;102542.41;4184562;28;20028;-70
2024/02/17 00:38:59;;;;;;;21.10;10.30;;;5.90;99.90;;;5.25;100.00;102543.25;4187885;28;20032;-70
2024/02/17 00:41:02;;;;;;;16.75;8.40;;;5.80;99.90;;;5.25;100.00;102540.66;4186675;28;20092;-70
2024/02/17 00:43:03;;;;;;;15.40;7.75;;;5.80;99.90;;;5.29;100.00;102542.16;4186906;28;20412;-70
2024/02/17 00:45:04;;;;;;;23.63;8.68;;;5.90;99.90;;;5.34;100.00;102548.03;4183950;28;20031;-70
2024/02/17 00:47:05;;;;;;;16.55;7.20;;;5.90;99.90;;;5.39;100.00;102558.25;4172943;28;20029;-70
2024/02/17 00:49:07;;;;;;;20.83;7.50;;;6.00;99.90;;;5.34;100.00;102548.03;4178949;28;20060;-69
2024/02/17 00:51:08;;;;;;;17.77;7.65;;;6.00;99.90;;;5.30;100.00;102551.72;4187674;28;20017;-69
2024/02/17 00:53:09;;;;;;;21.55;8.23;;;5.90;99.90;;;5.29;100.00;102554.38;4186755;28;20083;-69
2024/02/17 00:55:11;;;;;;;15.98;6.65;;;5.90;99.90;;;5.33;100.00;102562.03;4186486;28;20044;-69
2024/02/17 00:57:11;;;;;;;22.08;8.48;;;5.90;99.90;;;5.29;100.00;102562.25;4187748;28;20032;-69
2024/02/17 00:59:12;;;;;;;15.95;7.45;;;5.90;99.90;;;5.25;100.00;102563.34;4187709;28;20025;-69
2024/02/17 01:01:13;;;;;;;20.90;8.45;;;5.90;99.90;;;5.18;100.00;102556.72;4187865;28;20053;-69
2024/02/17 01:03:14;;;;;;;12.35;7.13;;;5.80;99.90;;;5.16;100.00;102548.97;4187531;28;20436;-69
2024/02/17 01:05:15;;;;;;;17.33;6.65;;;5.80;99.90;;;5.25;100.00;102543.25;4185997;28;20033;-69
2024/02/17 01:07:16;;;;;;;16.65;6.80;;;5.90;99.90;;;5.41;100.00;102543.31;4187593;28;20036;-70
2024/02/17 01:09:17;;;;;;;15.75;6.10;;;6.10;99.90;;;5.53;100.00;102545.28;4187552;28;20377;-69
2024/02/17 01:11:18;;;;;;;16.73;6.68;;;6.10;99.90;;;5.64;100.00;102549.97;4187470;28;20044;-69
2024/02/17 01:13:19;;;;;;;26.35;6.72;;;6.20;99.90;;;5.76;100.00;102550.19;4186618;28;20036;-69
2024/02/17 01:15:20;;;;;;;25.17;6.97;;;6.40;99.90;;;5.86;100.00;102546.16;4187453;28;20055;-69
2024/02/17 01:17:21;;;;;;;16.83;7.25;;;6.50;99.90;;;5.95;100.00;102556.16;4187902;28;20029;-70
2024/02/17 01:19:22;;;;;;;28.42;9.18;;;6.50;99.90;;;6.04;100.00;102545.19;4186284;28;20033;-69
2024/02/17 01:21:23;;;;;;;27.55;8.88;;;6.60;99.90;;;6.17;100.00;102550.63;4186914;28;20040;-69
2024/02/17 01:23:24;;;;;;;25.75;8.40;;;6.70;99.90;;;6.27;100.00;102554.44;4186058;28;20112;-70
2024/02/17 01:25:25;;;;;;;14.27;8.25;;;6.80;99.90;;;6.22;100.00;102558.19;4187376;28;20036;-69
2024/02/17 01:27:26;;;;;;;15.57;7.45;;;6.80;99.90;;;6.17;100.00;102555.84;4186146;28;20116;-69
2024/02/17 01:29:27;;;;;;;23.92;8.60;;;6.70;99.90;;;6.21;100.00;102551.28;4186079;28;20400;-69
2024/02/17 01:31:28;;;;;;;21.00;7.68;;;6.80;99.90;;;6.29;100.00;102551.72;4187453;28;20052;-70
2024/02/17 01:33:29;;;;;;;19.48;8.65;;;6.90;99.90;;;6.37;100.00;102539.88;4186258;28;20464;-69
2024/02/17 01:35:30;;;;;;;17.15;7.22;;;7.00;99.90;;;6.42;100.00;102544.88;4187152;28;20036;-69
2024/02/17 01:37:31;;;;;;;18.58;7.90;;;7.00;99.90;;;6.46;100.00;102547.22;4169244;28;20036;-69
2024/02/17 01:39:31;;;;;;;22.70;7.90;;;7.00;99.90;;;6.48;100.00;102540.09;4187090;28;20111;-70
2024/02/17 01:41:32;;;;;;;19.27;6.13;;;7.10;99.90;;;6.52;100.00;102541.63;4185895;28;20025;-69
2024/02/17 01:43:34;;;;;;;16.85;7.38;;;7.10;99.90;;;6.52;100.00;102546.03;4185950;28;20025;-69
2024/02/17 01:45:35;;;;;;;19.15;8.27;;;7.10;99.90;;;6.47;100.00;102554.16;4186821;28;20025;-69
2024/02/17 01:47:37;;;;;;;28.80;10.48;;;7.10;99.90;;;6.45;100.00;102550.75;4187241;28;20392;-70
2024/02/17 01:49:38;;;;;;;24.80;8.93;;;7.10;99.90;;;6.46;100.00;102546.38;4184740;28;20045;-70
2024/02/17 01:51:40;;;;;;;27.95;10.10;;;7.10;99.90;;;6.48;100.00;102545.34;4168911;28;20025;-69
2024/02/17 01:53:42;;;;;;;23.05;8.98;;;7.10;99.90;;;6.56;100.00;102543.16;4185459;28;20040;-69
2024/02/17 01:55:43;;;;;;;26.58;8.32;;;7.10;99.90;;;6.60;100.00;102536.81;4185709;28;20112;-69
2024/02/17 01:57:45;;;;;;;21.42;7.85;;;7.20;99.90;;;6.63;100.00;102544.50;4169021;28;20026;-69
2024/02/17 01:59:47;;;;;;;23.27;8.23;;;7.20;99.90;;;6.66;100.00;102535.59;4169697;28;20034;-70
2024/02/17 02:01:50;;;;;;;15.80;6.93;;;7.30;99.90;;;6.66;100.00;102530.34;4186641;28;20133;-69
2024/02/17 02:03:51;;;;;;;29.83;9.27;;;7.30;99.90;;;6.66;100.00;102528.59;4185219;28;20029;-70
2024/02/17 02:05:52;;;;;;;30.65;8.27;;;7.30;99.90;;;6.68;100.00;102526.75;4186487;28;20036;-69
2024/02/17 02:07:53;;;;;;;20.10;7.55;;;7.30;99.90;;;6.74;100.00;102524.69;4186701;28;20025;-70
2024/02/17 02:09:54;;;;;;;21.23;7.95;;;7.30;99.90;;;6.85;100.00;102532.78;4186471;28;20035;-70
2024/02/17 02:11:56;;;;;;;19.63;6.80;;;7.40;99.90;;;6.94;100.00;102534.88;4186679;28;20055;-69
2024/02/17 02:14:18;;;;;;;28.75;9.35;;;7.50;99.90;;;7.07;100.00;102538.50;4185460;28;20508;-69
2024/02/17 02:16:21;;;;;;;20.73;9.75;;;7.60;99.90;;;7.09;100.00;102545.34;4186482;28;20029;-70
2024/02/17 02:18:23;;;;;;;20.30;8.38;;;7.60;99.90;;;7.13;100.00;102544.22;4186689;28;20040;-70
2024/02/17 02:20:25;;;;;;;20.98;7.07;;;7.60;99.90;;;7.18;100.00;102550.03;4186604;28;20029;-70
2024/02/17 02:22:26;;;;;;;20.95;8.15;;;7.70;99.90;;;7.24;100.00;102556.72;4185149;28;20496;-69
2024/02/17 02:24:27;;;;;;;26.58;8.32;;;7.80;99.90;;;7.29;100.00;102557.28;4186271;28;20024;-69
2024/02/17 02:26:32;;;;;;;19.48;7.78;;;7.80;99.90;;;7.34;100.00;102560.50;4186511;28;20029;-70
2024/02/17 02:28:32;;;;;;;;;;;7.90;99.90;;;7.37;100.00;102562.94;4186750;28;20108;-69
2024/02/17 02:30:33;;;;;;;19.10;7.40;;;8.00;99.90;;;7.41;100.00;102561.78;4186366;28;19978;-71
2024/02/17 02:32:35;;;;;;;22.33;6.25;;;8.00;99.90;;;7.52;100.00;102566.41;4184974;28;20095;-70
2024/02/17 02:34:36;;;;;;;15.27;6.22;;;8.10;99.90;;;7.60;100.00;102566.78;4186264;28;20104;-70
2024/02/17 02:36:36;;;;;;;17.67;6.53;;;8.20;99.90;;;7.66;100.00;102571.69;4184935;28;20076;-70
2024/02/17 02:38:37;;;;;;;22.35;7.55;;;8.20;99.90;;;7.68;100.00;102573.28;4186137;28;20025;-70
2024/02/17 02:40:38;;;;;;;22.42;7.45;;;8.20;99.90;;;7.68;100.00;102567.16;4184980;28;20027;-70
2024/02/17 02:42:39;;;;;;;20.02;6.50;;;8.20;99.90;;;7.68;100.00;102561.91;4186267;28;20013;-70
2024/02/17 02:44:40;;;;;;;13.75;6.22;;;8.20;99.90;;;7.76;100.00;102563.13;4184920;28;20119;-70
2024/02/17 02:46:42;;;;;;;14.30;6.07;;;8.30;99.90;;;7.80;100.00;102567.28;4185941;28;20100;-70
2024/02/17 02:48:43;;;;;;;17.50;5.90;;;8.30;99.90;;;7.80;100.00;102551.50;4185293;28;20037;-70
2024/02/17 02:50:44;;;;;;;12.32;5.45;;;8.40;99.90;;;7.96;100.00;102563.72;4185874;28;20032;-70
2024/02/17 02:52:44;;;;;;;19.40;5.90;;;8.50;99.90;;;8.02;100.00;102565.97;4186059;28;20049;-70
2024/02/17 02:54:45;;;;;;;12.82;5.30;;;8.60;99.90;;;8.06;100.00;102554.31;4186018;28;20037;-70
2024/02/17 02:56:46;;;;;;;11.85;5.03;;;8.60;99.90;;;8.12;100.00;102546.06;4184686;28;20032;-70
2024/02/17 02:58:47;;;;;;;16.02;4.78;;;8.70;99.90;;;8.20;100.00;102554.31;4185828;28;20059;-70
2024/02/17 03:00:48;;;;;;;10.40;5.60;;;8.70;99.90;;;8.24;100.00;102551.38;4185806;28;20029;-69
2024/02/17 03:02:49;;;;;;;12.73;5.90;;;8.80;99.90;;;8.28;100.00;102541.53;4167993;28;20053;-70
2024/02/17 03:04:52;;;;;;;15.10;5.22;;;8.80;99.90;;;8.24;100.00;102535.59;4185677;28;20087;-70
2024/02/17 03:06:53;;;;;;;13.80;5.43;;;8.80;99.90;;;8.20;100.00;102528.88;4185442;28;20040;-71
2024/02/17 03:08:54;;;;;;;16.42;7.38;;;8.80;99.90;;;8.14;100.00;102523.16;4185741;28;20063;-70
2024/02/17 03:10:54;;;;;;;13.63;5.63;;;8.70;99.90;;;8.04;100.00;102514.13;4185742;28;20025;-70
2024/02/17 03:12:59;;;;;;;22.88;7.22;;;8.60;99.90;;;7.97;100.00;102510.22;4185231;28;20519;-70
2024/02/17 03:15:02;;;;;;;17.45;6.65;;;8.50;99.90;;;7.90;100.00;102509.75;4184190;28;20063;-70
2024/02/17 03:17:05;;;;;;;23.33;8.80;;;8.50;99.90;;;7.79;100.00;102507.78;4185476;28;20045;-70
2024/02/17 03:19:07;;;;;;;21.65;8.80;;;8.40;99.90;;;7.70;100.00;102516.25;4184795;28;20032;-70
2024/02/17 03:21:07;;;;;;;27.83;8.90;;;8.30;99.90;;;7.65;100.00;102518.31;4183936;28;20021;-70
2024/02/17 03:23:08;;;;;;;25.38;8.05;;;8.20;99.90;;;7.61;100.00;102529.97;4185598;28;20029;-70
2024/02/17 03:25:09;;;;;;;20.27;7.35;;;8.20;99.90;;;7.61;100.00;102526.47;4185627;28;20028;-70
2024/02/17 03:27:10;;;;;;;15.32;6.75;;;8.20;99.90;;;7.60;100.00;102523.00;4185602;28;20503;-70
2024/02/17 03:29:11;;;;;;;18.42;6.22;;;8.20;99.90;;;7.65;100.00;102517.44;4184313;28;20024;-70
2024/02/17 03:31:12;;;;;;;16.10;5.80;;;8.20;99.90;;;7.62;100.00;102523.75;4172319;28;20021;-70
2024/02/17 03:33:13;;;;;;;19.63;6.32;;;8.20;99.90;;;7.64;100.00;102535.03;4185348;28;20029;-70
2024/02/17 03:35:14;;;;;;;17.20;6.40;;;8.20;99.90;;;7.61;100.00;102529.09;4185411;28;20025;-70
2024/02/17 03:37:15;;;;;;;17.60;5.90;;;8.20;99.90;;;7.63;100.00;102525.44;4185039;28;20103;-70
2024/02/17 03:39:19;;;;;;;11.32;5.20;;;8.20;99.90;;;7.65;100.00;102534.06;4184245;28;20028;-70
2024/02/17 03:41:19;;;;;;;17.33;6.85;;;8.30;99.90;;;7.65;100.00;102530.59;4184016;28;20028;-70
2024/02/17 03:43:21;;;;;;;21.02;7.90;;;8.20;99.90;;;7.66;100.00;102533.13;4185318;28;20392;-70
2024/02/17 03:45:21;;;;;;;14.43;6.80;;;8.20;99.90;;;7.65;100.00;102531.44;4185232;28;20017;-70
2024/02/17 03:47:22;;;;;;;14.95;6.55;;;8.20;99.90;;;7.67;100.00;102545.34;4172302;28;20020;-70
2024/02/17 03:49:24;;;;;;;11.93;6.28;;;8.20;99.90;;;7.67;100.00;102547.97;4185048;28;20535;-69
2024/02/17 03:51:26;;;;;;;14.30;7.00;;;8.30;99.90;;;7.70;100.00;102555.66;4185190;28;20044;-70
2024/02/17 03:53:27;;;;;;;19.00;6.95;;;8.30;99.90;;;7.72;100.00;102566.06;4185197;28;20095;-70
2024/02/17 03:55:28;;;;;;;10.43;6.50;;;8.30;99.90;;;7.74;100.00;102574.69;4185194;28;20111;-70
2024/02/17 03:57:28;;;;;;;19.65;7.20;;;8.30;99.90;;;7.76;100.00;102584.16;4184058;28;20029;-70
2024/02/17 03:59:29;;;;;;;23.50;7.60;;;8.30;99.90;;;7.80;100.00;102585.66;4183833;28;20031;-70
2024/02/17 04:01:40;;;;;;;23.48;6.72;;;8.40;99.90;;;7.81;100.00;102578.63;4185065;28;20028;-70
2024/02/17 04:03:41;;;;;;;18.65;6.85;;;8.40;99.90;;;7.86;100.00;102580.97;4183904;28;20033;-70
2024/02/17 04:05:42;;;;;;;17.33;6.43;;;8.40;99.90;;;7.90;100.00;102582.47;4184855;28;20095;-70
2024/02/17 04:07:43;;;;;;;18.42;5.88;;;8.50;99.90;;;7.96;100.00;102582.97;4185189;28;20032;-70
2024/02/17 04:09:44;;;;;;;10.85;4.85;;;8.50;99.90;;;8.01;100.00;102580.03;4183775;28;20032;-70
2024/02/17 04:11:45;;;;;;;9.05;3.85;;;8.60;99.90;;;8.10;100.00;102590.81;4184764;28;20036;-70
2024/02/17 04:13:46;;;;;;;13.80;4.80;;;8.60;99.90;;;8.17;100.00;102597.41;4186972;28;20512;-70
2024/02/17 04:15:47;;;;;;;8.80;4.15;;;8.70;99.90;;;8.26;100.00;102611.75;4188649;28;20033;-70
2024/02/17 04:17:48;;;;;;;6.50;3.45;;;8.80;99.90;;;8.31;100.00;102609.72;4188577;28;20064;-70
2024/02/17 04:19:49;;;;;;;11.75;3.67;;;8.80;99.90;;;8.32;100.00;102620.16;4188187;28;20028;-70
2024/02/17 04:21:50;;;;;;;15.02;4.65;;;8.90;99.90;;;8.36;100.00;102627.84;4186909;28;20047;-70
2024/02/17 04:23:51;;;;;;;9.60;4.25;;;8.90;99.90;;;8.39;100.00;102636.38;4187268;28;20087;-70
2024/02/17 04:25:52;;;;;;;8.52;3.38;;;8.90;99.90;;;8.39;100.00;102641.66;4188430;28;20032;-70
2024/02/17 04:27:53;;;;;;;8.02;3.38;;;9.00;99.90;;;8.44;100.00;102647.47;4186979;28;20025;-70
2024/02/17 04:29:55;;;;;;;10.27;3.28;;;9.00;99.90;;;8.48;100.00;102642.84;4188230;28;20036;-69
2024/02/17 04:31:58;;;;;;;8.63;3.20;;;9.00;99.90;;;8.50;100.00;102646.22;4188298;28;20954;-70
2024/02/17 04:33:59;;;;;;;4.82;2.17;;;9.00;99.90;;;8.55;100.00;102654.66;4186824;28;20052;-70
2024/02/17 04:36:00;;;;;;;9.75;2.95;;;9.10;99.90;;;8.58;100.00;102655.31;4187989;28;20033;-70
2024/02/17 04:38:01;;;;;;;8.35;2.75;;;9.10;99.90;;;8.60;100.00;102652.59;4188116;28;20067;-70
2024/02/17 04:40:02;;;;;;;5.35;1.75;;;9.20;99.90;;;8.66;100.00;102668.81;4170430;28;20481;-70
2024/02/17 04:42:03;;;;;;;5.15;1.88;;;9.20;99.90;;;8.69;100.00;102658.09;4202839;28;20016;-70
2024/02/17 04:44:04;;;;;;;14.88;2.40;;;9.20;99.90;;;8.72;100.00;102660.53;4187719;28;20040;-70
2024/02/17 04:46:05;;;;;;;8.38;2.00;;;9.30;99.90;;;8.61;100.00;102644.59;4186643;28;20025;-70
2024/02/17 04:48:06;;;;;;;8.20;2.90;;;9.30;99.90;;;8.77;100.00;102668.16;4186625;28;20037;-70
2024/02/17 04:50:12;;;;;;;3.78;1.50;;;9.30;99.90;;;8.79;100.00;102672.38;4187885;28;20498;-70
2024/02/17 04:52:13;;;;;;;8.90;2.53;;;9.40;99.90;;;8.82;100.00;102685.34;4187700;28;20119;-70
2024/02/17 04:54:14;;;;;;;14.45;2.38;;;9.40;99.90;;;8.86;100.00;102686.00;4186700;28;20401;-70
2024/02/17 04:56:14;;;;;;;10.30;2.10;;;9.40;99.90;;;8.87;100.00;102688.53;4187871;28;20029;-70
2024/02/17 04:58:17;;;;;;;9.73;2.40;;;9.40;99.90;;;8.89;100.00;102696.34;4186676;28;20029;-70
2024/02/17 05:00:20;;;;;;;8.07;2.47;;;9.40;99.90;;;8.88;100.00;102692.00;4187609;28;20124;-70
2024/02/17 05:02:21;;;;;;;4.45;2.00;;;9.50;99.90;;;8.93;100.00;102705.69;4187595;28;20043;-70
2024/02/17 05:04:22;;;;;;;5.90;2.55;;;9.50;99.90;;;8.95;100.00;102700.34;4187613;28;20108;-70
2024/02/17 05:06:22;;;;;;;3.47;2.03;;;9.50;99.90;;;8.92;100.00;102706.66;4186229;28;20048;-70
2024/02/17 05:08:24;;;;;;;10.25;3.50;;;9.50;99.90;;;8.90;100.00;102712.00;4187669;28;20016;-70
2024/02/17 05:10:24;;;;;;;10.02;5.07;;;9.50;99.90;;;8.84;100.00;102711.59;4187567;28;20029;-70
2024/02/17 05:12:25;;;;;;;16.30;6.57;;;9.40;99.90;;;8.68;100.00;102724.84;4187699;28;20033;-70
2024/02/17 05:14:27;;;;;;;11.45;6.32;;;9.30;99.90;;;8.57;100.00;102716.75;4187670;28;20468;-70
2024/02/17 05:16:28;;;;;;;13.68;6.93;;;9.20;99.90;;;8.48;100.00;102716.50;4187400;28;20025;-70
2024/02/17 05:18:28;;;;;;;12.18;7.10;;;9.10;99.90;;;8.38;100.00;102723.25;4187485;28;20044;-70
2024/02/17 05:20:29;;;;;;;14.13;7.03;;;9.00;99.90;;;8.30;100.00;102731.63;4186954;28;20029;-70
2024/02/17 05:22:30;;;;;;;14.57;6.70;;;8.90;99.90;;;8.21;100.00;102724.25;4186989;28;20033;-70
2024/02/17 05:24:31;;;;;;;17.42;7.07;;;8.80;99.90;;;8.15;100.00;102738.56;4186044;28;20040;-70
2024/02/17 05:26:39;;;;;;;13.18;5.75;;;8.70;99.90;;;8.11;100.00;102744.97;4187584;28;20108;-70
2024/02/17 05:28:40;;;;;;;13.68;5.85;;;8.70;99.90;;;8.08;100.00;102739.06;4186038;28;20021;-70
2024/02/17 05:30:41;;;;;;;11.15;5.07;;;8.70;99.90;;;8.10;100.00;102742.41;4187211;28;20119;-70
2024/02/17 05:32:43;;;;;;;11.30;5.65;;;8.70;99.90;;;8.14;100.00;102739.53;4187128;28;20499;-70
2024/02/17 05:34:44;;;;;;;20.70;7.93;;;8.70;99.90;;;8.16;100.00;102734.16;4186003;28;20029;-70
2024/02/17 05:36:45;;;;;;;10.98;6.63;;;8.70;99.90;;;8.17;100.00;102735.88;4185725;28;20028;-70
2024/02/17 05:38:46;;;;;;;11.38;6.57;;;8.70;99.90;;;8.19;100.00;102732.22;4187093;28;20037;-70
2024/02/17 05:40:47;;;;;;;17.85;7.22;;;8.70;99.90;;;8.19;100.00;102729.59;4185647;28;20029;-70
2024/02/17 05:42:48;;;;;;;9.48;5.78;;;8.70;99.90;;;8.20;100.00;102720.78;4187037;28;20025;-70
2024/02/17 05:44:49;;;;;;;14.63;6.60;;;8.70;99.90;;;8.24;100.00;102724.06;4186985;28;20392;-70
2024/02/17 05:46:50;;;;;;;16.13;6.78;;;8.70;99.90;;;8.22;100.00;102718.03;4182102;28;20021;-70
2024/02/17 05:48:51;;;;;;;11.02;5.82;;;8.70;99.90;;;8.24;100.00;102714.38;4185490;28;20045;-69
2024/02/17 05:50:55;;;;;;;11.13;5.75;;;8.80;99.90;;;8.28;100.00;102720.31;4186824;28;20027;-70
2024/02/17 05:52:56;;;;;;;13.48;7.25;;;8.80;99.90;;;8.24;100.00;102719.63;4186874;28;20025;-69
2024/02/17 05:54:57;;;;;;;11.70;6.68;;;8.80;99.90;;;8.26;100.00;102722.19;4185731;28;20374;-70
2024/02/17 05:56:59;;;;;;;15.50;7.40;;;8.80;99.90;;;8.28;100.00;102720.31;4186958;28;20083;-70
2024/02/17 05:59:03;;;;;;;16.58;8.05;;;8.80;99.90;;;8.30;100.00;102719.28;4186844;28;20104;-70
2024/02/17 06:01:04;;;;;;;19.07;8.73;;;8.80;99.90;;;8.31;100.00;102710.47;4186977;28;20397;-70
2024/02/17 06:03:07;;;;;;;19.63;7.97;;;8.90;99.90;;;8.34;100.00;102717.31;4185514;28;20171;-70
2024/02/17 06:05:08;;;;;;;13.77;7.32;;;8.90;99.90;;;8.36;100.00;102717.25;4186771;28;20044;-69
2024/02/17 06:07:09;;;;;;;17.23;7.32;;;8.90;99.90;;;8.34;100.00;102715.53;4185385;28;20025;-70
2024/02/17 06:09:10;;;;;;;16.08;7.63;;;8.90;99.90;;;8.34;100.00;102715.53;4186868;28;20024;-70
2024/02/17 06:11:11;;;;;;;17.70;7.30;;;8.90;99.90;;;8.36;100.00;102723.34;4185540;28;20025;-70
2024/02/17 06:13:12;;;;;;;14.63;7.80;;;8.90;99.90;;;8.39;100.00;102717.06;4186608;28;20033;-70
2024/02/17 06:15:13;;;;;;;12.35;6.22;;;8.90;99.90;;;8.29;100.00;102696.59;4186658;28;20056;-70
2024/02/17 06:17:22;;;;;;;18.08;7.72;;;8.90;99.90;;;8.44;100.00;102713.22;4186745;28;20051;-70
2024/02/17 06:21:42;;;;;;;15.38;7.32;;;9.00;99.90;;;8.50;100.00;102722.50;4173603;28;20078;-70
2024/02/17 06:23:44;;;;;;;18.10;7.68;;;9.00;99.90;;;8.50;100.00;102719.88;4186471;28;20032;-70
2024/02/17 06:25:44;;;;;;;15.52;7.00;;;9.00;99.90;;;8.52;100.00;102729.34;4185478;28;20506;-70
2024/02/17 06:27:45;;;;;;;15.50;7.75;;;9.00;99.90;;;8.49;100.00;102721.66;4168514;28;20029;-70
2024/02/17 06:29:46;;;;;;;12.90;5.90;;;9.10;99.90;;;8.55;100.00;102742.31;4186292;28;20032;-70
2024/02/17 06:31:47;;;;;;;12.30;6.10;;;9.10;99.90;;;8.54;100.00;102731.91;4186545;28;20037;-70
2024/02/17 06:33:48;;;;;;;15.93;7.85;;;9.10;99.90;;;8.55;100.00;102739.69;4186243;28;20032;-70
2024/02/17 06:35:49;;;;;;;14.38;6.60;;;9.10;99.90;;;8.56;100.00;102737.91;4184315;28;20025;-70
2024/02/17 06:37:50;;;;;;;20.48;8.20;;;9.10;99.90;;;8.53;100.00;102752.09;4181976;28;20029;-70
2024/02/17 06:39:51;;;;;;;11.77;7.15;;;9.00;99.90;;;8.57;100.00;102758.84;4178323;28;20040;-70
2024/02/17 06:41:52;;;;;;;14.98;6.90;;;9.10;99.90;;;8.59;100.00;102767.50;4186338;28;20025;-70
2024/02/17 06:43:53;;;;;;;14.32;6.63;;;9.10;99.90;;;8.57;100.00;102760.66;4186129;28;20033;-70
2024/02/17 06:45:53;;;;;;;17.23;7.68;;;9.10;99.90;;;8.59;100.00;102756.13;4184801;28;20021;-70
2024/02/17 06:47:54;;;;;;;15.30;7.18;;;9.10;99.90;;;8.62;100.00;102754.16;4184973;28;20021;-70
2024/02/17 06:49:55;;;;;;;15.98;7.10;;;9.20;99.90;;;8.64;100.00;102754.06;4185837;28;20037;-70
2024/02/17 06:51:56;;;;;;;12.32;5.88;;;9.20;99.90;;;8.62;100.00;102751.53;4185914;28;20033;-70
2024/02/17 06:53:57;;;;;;;11.98;6.07;;;9.20;99.90;;;8.63;100.00;102758.47;4185964;28;20037;-70
2024/02/17 06:55:57;;;;;;;14.60;7.00;;;9.20;99.90;;;8.63;100.00;102758.47;4184956;28;20546;-70
2024/02/17 06:57:58;;;;;;;13.57;7.28;;;9.20;99.90;;;8.62;100.00;102764.69;4186128;28;20447;-70
2024/02/17 06:59:59;;;;;;;14.10;6.72;;;9.20;99.90;;;8.62;100.00;102769.94;4185762;28;20036;-70
2024/02/17 07:02:00;;;;;;;16.80;7.85;;;9.20;99.90;;;8.60;100.00;102769.16;4184629;28;20021;-70
2024/02/17 07:04:01;;;;;;;12.93;7.15;;;9.10;99.90;;;8.60;100.00;102771.81;4184791;28;20484;-70
2024/02/17 07:06:02;;;;;;;13.57;7.15;;;9.10;99.90;;;8.62;100.00;102772.56;4185607;28;20028;-70
2024/02/17 07:08:04;;;;;;;24.75;8.85;;;9.10;99.90;;;8.65;100.00;102777.66;4184547;28;20096;-70
2024/02/17 07:10:06;;;;;;;14.93;7.63;;;9.20;99.90;;;8.67;100.00;102777.53;4185573;28;20024;-70
2024/02/17 07:12:07;;;;;;;14.65;8.10;;;9.20;99.90;;;8.69;100.00;102784.41;4184524;28;20120;-70
2024/02/17 07:14:08;;;;;;;12.75;6.90;;;9.20;99.90;;;8.72;100.00;102781.56;4185665;28;20082;-70
2024/02/17 07:16:11;;;;;;;12.38;7.72;;;9.20;99.90;;;8.74;100.00;102787.59;4184548;28;20469;-70
2024/02/17 07:18:14;;;;;;;14.18;7.75;;;9.30;99.90;;;8.76;100.00;102785.72;4184037;28;20447;-70
2024/02/17 07:20:15;;;;;;;15.57;6.80;;;9.30;99.90;;;8.78;100.00;102777.75;4184178;28;20112;-70
2024/02/17 07:22:16;;;;;;;11.88;6.32;;;9.30;99.90;;;8.81;100.00;102781.00;4167676;28;20493;-70
2024/02/17 07:24:17;;;;;;;12.80;6.18;;;9.30;99.90;;;8.86;100.00;102780.75;4184295;28;20071;-70
2024/02/17 07:26:18;;;;;;;10.80;5.35;;;9.40;99.90;;;8.88;100.00;102771.81;4184351;28;20036;-70
2024/02/17 07:28:19;;;;;;;12.82;5.55;;;9.40;99.90;;;8.93;100.00;102783.84;4185586;28;20040;-70
2024/02/17 07:30:20;;;;;;;12.50;6.82;;;9.40;99.90;;;8.94;100.00;102786.38;4185526;28;20033;-70
2024/02/17 07:32:22;;;;;;;16.60;7.85;;;9.50;99.90;;;9.00;100.00;102790.41;4184030;28;20091;-70
2024/02/17 07:34:23;;;;;;;12.82;6.55;;;9.50;99.90;;;9.07;100.00;102794.34;4184122;28;20056;-70
2024/02/17 07:36:25;;;;;;;11.30;6.55;;;9.50;99.90;;;9.12;100.00;102801.00;4185226;28;20037;-70
2024/02/17 07:38:26;;;;;;;11.40;5.82;;;9.60;99.90;;;9.17;100.00;102798.09;4185490;28;20029;-70
2024/02/17 07:40:27;;;;;;;17.50;6.30;;;9.70;99.90;;;9.23;100.00;102811.69;4185336;28;20037;-70
2024/02/17 07:42:28;;;;;;;13.25;6.60;;;9.70;99.90;;;9.29;100.00;102806.06;4185193;28;20025;-70
2024/02/17 07:44:29;;;;;;;17.40;6.65;;;9.80;99.90;;;9.31;100.00;102795.44;4185074;28;20033;-70
2024/02/17 07:46:30;;;;;;;18.98;7.82;;;9.80;99.90;;;9.32;100.00;102794.47;4184600;28;20477;-70
2024/02/17 07:48:30;;;;;;;14.65;5.57;;;9.80;99.90;;;9.28;100.00;102787.72;4185144;28;20485;-70
2024/02/17 07:50:31;;;;;;;13.70;5.75;;;9.80;99.90;;;9.31;100.00;102792.81;4183573;28;20067;-70
2024/02/17 07:52:32;;;;;;;12.25;4.75;;;9.80;99.90;;;9.31;100.00;102787.53;4183883;28;20025;-70
2024/02/17 07:54:33;;;;;;;13.70;5.68;;;9.80;99.90;;;9.31;100.00;102787.53;4183984;28;20035;-70
2024/02/17 07:56:34;;;;;;;14.70;5.60;;;9.80;99.90;;;9.35;100.00;102789.84;4167464;28;20036;-70
2024/02/17 07:58:35;;;;;;;12.07;5.18;;;9.90;99.90;;;9.44;100.00;102791.06;4185335;28;20033;-70
2024/02/17 08:00:38;;;;;;;10.85;4.57;;;9.90;99.90;;;9.53;100.00;102787.81;4185042;28;20061;-70
2024/02/17 08:02:39;;;;;;;10.95;4.70;;;10.00;99.90;;;9.58;100.00;102785.75;4167592;28;20045;-70
2024/02/17 08:04:42;;;;;;;10.57;4.35;;;10.10;99.90;;;9.64;100.00;102800.31;4200312;28;20032;-70
2024/02/17 08:06:43;;;;;;;12.82;4.78;;;10.10;99.90;;;9.63;100.00;102795.97;4184914;28;20028;-70
2024/02/17 08:08:45;;;;;;;11.68;4.57;;;10.20;99.90;;;9.66;100.00;102788.72;4183316;28;20428;-70
2024/02/17 08:10:46;;;;;;;10.00;4.80;;;10.20;99.90;;;9.72;100.00;102798.03;4184551;28;20059;-70
2024/02/17 08:12:47;;;;;;;12.27;5.30;;;10.30;99.90;;;9.67;100.00;102811.50;4184683;28;20481;-70
2024/02/17 08:14:52;;;;;;;11.23;5.60;;;10.20;99.90;;;9.65;100.00;102797.56;4183326;28;20067;-70
2024/02/17 08:16:53;;;;;;;14.43;5.63;;;10.20;99.90;;;9.68;100.00;102801.78;4183490;28;20021;-70
2024/02/17 08:18:54;;;;;;;12.48;5.68;;;10.20;99.90;;;9.77;100.00;102804.69;4184676;28;20033;-70
2024/02/17 08:20:57;;;;;;;12.70;6.40;;;10.20;99.90;;;9.81;100.00;102816.72;4184677;28;20508;-70
2024/02/17 08:22:59;;;;;;;11.90;6.40;;;10.30;99.90;;;9.81;100.00;102813.22;4184845;28;20086;-70
2024/02/17 08:25:01;;;;;;;22.58;8.48;;;10.30;99.90;;;9.77;100.00;102815.22;4167006;28;20037;-71
2024/02/17 08:27:04;;;;;;;14.43;7.50;;;10.30;99.90;;;9.74;100.00;102812.78;4184761;28;20063;-71